Terminal Aerodrome Forecast
Issued by NWS

Home | Current Version | Previous Version | Text Only | Print | Product List | Glossary On
Versions: 1 2 3 4 5 6 7 8 9 10 11 12 13 14 15 16 17 18 19
504
FTUS43 KAPX 081738 AAA
TAFAPN
TAF AMD
KAPN 081738Z 0818/0918 29011G19KT P6SM VCSH OVC025
     FM082000 31010G20KT P6SM -SHSN OVC035
     FM090000 31008KT P6SM VCSH OVC050
     FM091200 31006KT P6SM BKN035
     FM091600 32007KT P6SM BKN030=

USA.gov is the U.S. government's official web portal to all federal, state and local government web resources and services.